CDT,Max TemperatureF,Mean TemperatureF,Min TemperatureF,Max Dew PointF,MeanDew PointF,Min DewpointF,Max Humidity, Mean Humidity, Min Humidity, Max Sea Level PressureIn, Mean Sea Level PressureIn, Min Sea Level PressureIn, Max VisibilityMiles, Mean VisibilityMiles, Min VisibilityMiles, Max Wind SpeedMPH, Mean Wind SpeedMPH, Max Gust SpeedMPH,PrecipitationIn, CloudCover, Events, WindDirDegrees
2012-9-1,95,85,75,75,72,69,94,79,46,30.03,29.95,29.86,10,7,0,16,8,24,0.97,5,Fog-Rain-Thunderstorm,236
2012-9-2,97,86,75,75,73,70,94,71,44,29.96,29.91,29.83,10,9,2,13,3,18,0.00,1,,245
2012-9-3,100,86,73,72,70,68,91,59,38,29.93,29.87,29.82,10,10,10,9,2,,0.00,0,,238
2012-9-4,99,87,75,73,70,66,90,59,35,29.90,29.86,29.82,10,10,9,7,3,,0.00,0,,221
2012-9-5,99,87,75,72,69,64,85,58,32,29.87,29.82,29.76,10,10,10,7,2,,0.00,0,,236
2012-9-6,99,86,73,73,71,67,90,64,37,29.90,29.86,29.83,10,10,10,8,2,,0.00,0,,117
2012-9-7,99,86,73,72,69,64,94,70,34,29.91,29.84,29.70,10,8,1,20,7,38,0.64,3,Rain-Thunderstorm,89
2012-9-8,82,74,62,72,58,47,94,65,30,30.06,29.97,29.87,10,10,2,16,5,25,0.16,3,Rain-Thunderstorm,9
2012-9-9,87,71,55,58,54,46,90,60,24,30.12,30.06,30.01,10,10,10,6,3,,0.00,0,,303
2012-9-10,86,74,63,59,56,53,78,58,32,30.16,30.09,30.04,10,10,10,10,4,,0.00,0,,94
2012-9-11,86,74,61,61,59,57,90,62,38,30.15,30.10,30.05,10,10,10,13,3,,0.00,0,,119
2012-9-12,86,74,64,63,61,58,81,64,41,30.16,30.10,30.05,10,10,10,12,5,,0.00,0,,117
2012-9-13,88,76,66,70,65,60,82,71,48,30.19,30.13,30.05,10,10,9,8,3,,0.00,3,,117
2012-9-14,82,75,69,70,67,65,96,82,58,30.20,30.17,30.11,10,7,0,12,5,,2.12,5,Fog-Rain-Thunderstorm,108
2012-9-15,72,70,68,70,68,66,100,92,83,30.20,30.14,30.08,7,4,1,10,5,,0.94,8,Rain,100
2012-9-16,77,72,68,70,68,66,94,89,74,30.09,30.03,29.97,10,5,1,10,3,,0.72,7,Rain,104
2012-9-17,72,69,66,68,67,65,97,91,81,29.98,29.89,29.79,10,6,2,9,4,,0.58,7,Rain,69
2012-9-18,75,66,54,66,57,41,100,77,30,30.08,29.93,29.83,10,7,1,12,3,21,0.00,3,,330
2012-9-19,78,64,50,54,49,42,93,64,31,30.18,30.11,30.05,10,10,10,5,1,,0.00,0,,110
2012-9-20,84,68,55,60,55,52,93,66,38,30.08,30.04,29.97,10,10,10,10,2,,0.00,0,,215
2012-9-21,84,73,62,63,60,57,87,65,44,30.02,29.96,29.89,10,10,10,9,2,,0.00,0,,213
2012-9-22,88,75,63,63,56,49,90,59,27,30.12,30.04,29.94,10,10,10,7,3,,0.00,0,,109
2012-9-23,72,62,53,58,48,37,88,60,39,30.33,30.22,30.13,10,9,2,13,6,18,0.18,2,Rain-Thunderstorm,83
2012-9-24,80,69,59,64,52,43,81,60,45,30.22,30.13,30.02,10,10,10,7,4,,0.00,0,,118
2012-9-25,88,78,70,67,65,60,90,66,40,30.03,29.98,29.93,10,9,4,10,5,16,0.00,0,,196
2012-9-26,86,78,71,68,67,65,87,69,51,30.07,30.03,29.98,10,10,7,14,6,24,0.00,2,,208
2012-9-27,86,76,66,68,66,63,88,71,53,30.12,30.07,30.01,10,10,10,8,3,,0.00,1,,235
2012-9-28,84,75,68,68,66,64,87,76,54,30.10,30.05,29.99,10,10,10,5,1,,0.00,1,,82
2012-9-29,73,70,66,68,64,58,88,79,68,30.04,29.99,29.92,10,10,8,10,6,,0.00,4,Rain,82
2012-9-30,68,65,62,61,57,55,90,75,63,29.92,29.83,29.77,10,10,9,13,5,18,0.07,8,Rain,39